Lockney, West Virginia
Current Conditions -  °F | °C
As of 11:35 PM on Tuesday 21 Oct 2014 (Local Time) from KW22 Reporting Station
Unknown Precip Unknown Precip  
Wind Chill: 40°   Ceiling: 700
Heat Index: 45°   Visibility: 5mi
Dew Point: 45°   Wind: 8mph
Humidity: 100%   Direction: 320°NW
Pressure: 30.04"   Gusts: NA
Location:  38.86°N, 80.97°W
Report Text: KW22 220335Z AUTO 32007KT 5SM -UP OVC007 07/07 A3004 RMK AO2
Loading
Personal Weather Stations






























Interactive Weather Map New forecast layout! Learn more

10-Day Weather Forecast

Advertisements
Track Severe Weather on mobile